ロンドン/ヒースロー の空港の天気 - METARとTAF

ロンドン・ヒースロー空港 ( EGLL / LHR ) - イギリス ロンドン
飛行場実況気象(Metar)
観測時間10/28 16:50 GMT (10/28 16:50 UTC)
風向・風速南西 5m/s
視程10km以上
天気現象
なし
気温9℃
湿度87%
気圧1002hPa
METAREGLL 281650Z AUTO 23010KT 9999 NCD 09/07 Q1002 TEMPO SHRA
過去の天気等 Google飛行場航空写真 Wunderground天気予報

過去48時間のMETAR

飛行場予報(TAF)
発表時間: 10/28 15:15 GMT (10/28 15:15 UTC)
予報対象時間: 28日15時 GMT ~ 29日18時 GMT
風向・風速西南西 7m/s
視程10km以上
全天の4割程度の雲 雲底高度 910m
28日15時 GMT ~ 28日21時 GMT に一時的に
視程7000m
天気現象しゅう雨
28日15時 GMT ~ 28日17時 GMT に 確率 40% で一時的に
風向・風速西 10m/s 瞬間風速 18m/s
視程3000m
天気現象強い雷雨あられ
全天の8割程度の積乱雲 雲底高度 430m
29日8時 GMT ~ 29日18時 GMT に一時的に
視程8000m
天気現象弱い雨
全天の8割程度の雲 雲底高度 370m
29日8時 GMT ~ 29日12時 GMT に 確率 30% で一時的に
視程4000m
天気現象
全天の8割程度の雲 雲底高度 240m
29日12時 GMT ~ 29日18時 GMT に一時的に
風向・風速西南西 8m/s 瞬間風速 13m/s
TAF AMD EGLL 281515Z 2815/2918 24014KT 9999 SCT030
TEMPO 2815/2821 7000 SHRA
PROB40 TEMPO 2815/2817 26020G35KT 3000 +TSRAGS BKN014CB
TEMPO 2908/2918 8000 -RA BKN012
PROB30 TEMPO 2908/2912 4000 RA BKN008
TEMPO 2912/2918 24015G25KT